This is the latest recevied weather packets stored in our database for station/object KQ5S-13. If no packets are shown the sender has not sent any weather packets the latest 10 day(s).
| Time | Temp. | Humidity | Pressure | Rain* | Wind** | Luminosity | Snow |
|---|---|---|---|---|---|---|---|
| 1777589418 | 17.78° C | 53% | 1012.9 hPa | 0 mm | - | 99 W/m² | - |
| 1777588818 | 17.78° C | 52% | 1012.8 hPa | 0 mm | - | 131 W/m² | - |
| 1777581017 | 18.89° C | 57% | 1012.9 hPa | 0 mm | - | 267 W/m² | - |
| 1777580417 | 18.89° C | 55% | 1013 hPa | 0 mm | - | 250 W/m² | - |
| 1777579217 | 18.89° C | 55% | 1013.2 hPa | 0 mm | - | 268 W/m² | - |
| 1777576837 | 18.89° C | 59% | 1013.7 hPa | 0 mm | - | 292 W/m² | - |
| 1777574417 | 18.89° C | 57% | 1013.9 hPa | 0 mm | - | 322 W/m² | - |
| 1777568417 | 17.78° C | 62% | 1013.9 hPa | 0 mm | - | 595 W/m² | - |
| 1777567217 | 18.33° C | 62% | 1014.3 hPa | 0 mm | - | 629 W/m² | - |
| 1777566017 | 17.78° C | 70% | 1014.4 hPa | 0 mm | - | 1024 W/m² | - |
| 1777564817 | 17.22° C | 70% | 1014.1 hPa | 0 mm | - | 896 W/m² | - |
| 1777563017 | 16.11° C | 73% | 1014.1 hPa | 0 mm | - | 940 W/m² | - |
| 1777559437 | 14.44° C | 76% | 1013.5 hPa | 0 mm | - | 508 W/m² | - |
| 1777558217 | 13.89° C | 77% | 1013.6 hPa | 0 mm | - | 282 W/m² | - |
| 1777553416 | 13.33° C | 87% | 1013.3 hPa | 0 mm | - | 128 W/m² | - |
| 1777552216 | 13.33° C | 89% | 1013 hPa | 0 mm | - | 202 W/m² | - |
| 1777551016 | 13.33° C | 92% | 1012.9 hPa | 0 mm | - | 142 W/m² | - |
| 1777545016 | 13.89° C | 94% | 1012 hPa | 0.25 mm | - | 0 W/m² | - |
| 1777540217 | 13.89° C | 94% | 1011.6 hPa | 2.54 mm | - | 0 W/m² | - |
| 1777536016 | 13.89° C | 93% | 1012.2 hPa | 3.56 mm | - | 0 W/m² | - |
| 1777534816 | 13.89° C | 93% | 1011.8 hPa | 1.78 mm | - | 0 W/m² | - |
| 1777529416 | 16.67° C | 91% | 1012.4 hPa | 8.13 mm | - | 0 W/m² | - |
| 1777522216 | 19.44° C | 84% | 1011.9 hPa | 0 mm | - | 0 W/m² | - |
| 1777519817 | 20° C | 83% | 1012.7 hPa | 0 mm | - | 0 W/m² | - |
| 1777516216 | 20.56° C | 84% | 1012.4 hPa | 0 mm | - | 0 W/m² | - |
* Rain latest hour (hover to see other rain measurements)
** Current wind speed in m/s (hover to see current wind gust speed)